createdAt,value
2023-03-29T00:07:10.270Z,95.00
2023-03-29T00:17:15.329Z,95.60
2023-03-29T00:27:19.121Z,96.10
2023-03-29T00:37:26.680Z,96.60
2023-03-29T00:47:36.993Z,96.80
2023-03-29T00:57:46.545Z,97.00
2023-03-29T01:07:57.925Z,97.50
2023-03-29T01:18:03.076Z,97.80
2023-03-29T01:28:11.683Z,97.90
2023-03-29T01:38:22.728Z,98.60
2023-03-29T01:48:32.974Z,99.20
2023-03-29T01:58:42.737Z,99.70
2023-03-29T02:08:49.696Z,99.90
2023-03-29T02:18:57.643Z,99.90
2023-03-29T02:29:02.917Z,99.90
2023-03-29T02:39:09.750Z,99.90
2023-03-29T02:49:14.911Z,99.90
2023-03-29T02:59:20.664Z,99.90
2023-03-29T03:09:25.624Z,99.90
2023-03-29T03:19:29.586Z,99.90
2023-03-29T03:29:35.898Z,99.90
2023-03-29T03:39:39.653Z,99.90
2023-03-29T03:49:44.543Z,99.90
2023-03-29T03:59:49.057Z,99.90
2023-03-29T04:09:54.083Z,99.90
2023-03-29T04:19:58.476Z,99.90
2023-03-29T04:30:03.605Z,99.90
2023-03-29T04:40:09.975Z,99.90
2023-03-29T04:50:15.682Z,99.90
2023-03-29T05:00:26.924Z,99.90
2023-03-29T05:10:31.836Z,99.90
2023-03-29T05:20:35.568Z,99.90
2023-03-29T05:30:40.653Z,99.90
2023-03-29T05:40:44.463Z,99.90
2023-03-29T05:50:50.596Z,99.90
2023-03-29T06:00:54.758Z,99.90
2023-03-29T06:11:03.972Z,99.90
2023-03-29T06:21:09.337Z,99.90
2023-03-29T06:31:14.477Z,99.90
2023-03-29T06:41:18.236Z,99.90
2023-03-29T06:51:23.588Z,99.90
2023-03-29T07:01:28.417Z,98.90
2023-03-29T07:11:35.331Z,98.40
2023-03-29T07:21:39.357Z,97.70
2023-03-29T07:31:46.389Z,96.50
2023-03-29T07:41:50.158Z,96.10
2023-03-29T07:51:55.363Z,96.40
2023-03-29T08:01:59.247Z,95.90
2023-03-29T08:12:04.415Z,94.50
2023-03-29T08:22:08.111Z,93.20
2023-03-29T08:32:13.259Z,93.70
2023-03-29T08:42:55.657Z,93.40
2023-03-29T08:53:04.476Z,92.70
2023-03-29T09:03:18.651Z,91.90
2023-03-29T09:13:36.617Z,91.00
2023-03-29T09:24:15.580Z,90.10
2023-03-29T09:34:24.762Z,88.20
2023-03-29T09:44:34.499Z,88.20
2023-03-29T09:54:39.527Z,87.10
2023-03-29T10:04:44.547Z,85.90
2023-03-29T10:14:53.568Z,86.10
2023-03-29T10:24:59.184Z,84.90
2023-03-29T10:35:24.989Z,83.90
2023-03-29T10:45:31.234Z,83.80
2023-03-29T10:55:46.352Z,84.10
2023-03-29T11:05:55.627Z,84.70
2023-03-29T11:16:11.793Z,85.30
2023-03-29T11:26:20.897Z,85.80
2023-03-29T11:36:34.524Z,84.00
2023-03-29T11:46:43.496Z,83.80
2023-03-29T11:56:55.888Z,82.20
2023-03-29T12:07:11.973Z,81.60
2023-03-29T12:17:21.113Z,80.20
2023-03-29T12:27:29.130Z,81.20
2023-03-29T12:37:43.110Z,81.90
2023-03-29T12:47:48.540Z,84.00
2023-03-29T12:58:04.564Z,84.20
2023-03-29T13:08:27.491Z,85.60
2023-03-29T13:18:49.618Z,86.00
2023-03-29T13:29:13.105Z,86.50
2023-03-29T13:39:23.920Z,84.40
2023-03-29T13:49:30.638Z,86.40
2023-03-29T13:59:49.151Z,87.30
2023-03-29T14:09:53.842Z,86.90
2023-03-29T14:20:01.482Z,86.70
2023-03-29T14:30:21.889Z,86.00
2023-03-29T14:40:27.735Z,85.60
2023-03-29T14:50:32.311Z,84.30
2023-03-29T15:00:43.359Z,83.40
2023-03-29T15:10:47.274Z,83.30
2023-03-29T15:20:52.418Z,83.30
2023-03-29T15:31:07.980Z,83.70
2023-03-29T15:41:15.314Z,83.90
2023-03-29T15:51:19.197Z,84.00
2023-03-29T16:01:33.683Z,83.30
2023-03-29T16:11:37.488Z,83.80
2023-03-29T16:21:43.369Z,85.60
2023-03-29T16:31:49.127Z,85.90
2023-03-29T16:41:54.238Z,86.80
2023-03-29T16:51:59.736Z,87.60
2023-03-29T17:02:04.905Z,89.80
2023-03-29T17:12:09.865Z,91.40
2023-03-29T17:22:14.954Z,92.20
2023-03-29T17:32:18.710Z,92.40
2023-03-29T17:42:23.777Z,92.80
2023-03-29T17:52:27.703Z,93.20
2023-03-29T18:02:32.841Z,92.90
2023-03-29T18:12:36.788Z,93.70
2023-03-29T18:22:42.742Z,94.30
2023-03-29T18:32:46.474Z,95.50
2023-03-29T18:42:51.694Z,96.50
2023-03-29T18:52:55.379Z,97.60
2023-03-29T19:03:00.552Z,99.00
2023-03-29T19:13:05.118Z,99.70
2023-03-29T19:23:10.117Z,99.90
2023-03-29T19:33:14.478Z,99.90
2023-03-29T19:43:20.657Z,99.90
2023-03-29T19:53:24.445Z,99.90
2023-03-29T20:03:33.904Z,99.90
2023-03-29T20:13:39.196Z,99.90
2023-03-29T20:23:47.366Z,99.90
2023-03-29T20:33:51.110Z,99.90
2023-03-29T20:43:59.583Z,99.90
2023-03-29T20:54:06.251Z,99.90
2023-03-29T21:04:11.631Z,99.90
2023-03-29T21:14:19.653Z,99.90
2023-03-29T21:24:26.495Z,99.90
2023-03-29T21:34:30.493Z,99.90
2023-03-29T21:44:35.630Z,99.90
2023-03-29T21:54:39.344Z,99.90
2023-03-29T22:04:44.443Z,99.90
2023-03-29T22:14:48.565Z,99.90
2023-03-29T22:24:55.787Z,99.90
2023-03-29T22:34:59.594Z,99.90
2023-03-29T22:45:06.526Z,99.90
2023-03-29T22:55:11.118Z,99.90
2023-03-29T23:05:16.549Z,99.90
2023-03-29T23:15:22.720Z,99.90
2023-03-29T23:25:28.699Z,99.90
2023-03-29T23:35:32.854Z,99.90
2023-03-29T23:45:39.572Z,99.90
2023-03-29T23:55:43.248Z,99.90
